Terminal Aerodrome Forecast
Issued by NWS

Home | Current Version | Previous Version | Text Only | Print | Product List | Glossary On
Versions: 1 2 3 4 5 6 7 8 9 10 11 12 13 14 15
692
FTUS44 KJAN 281753
TAFHKS
TAF
KHKS 281753Z 2818/2918 16015KT P6SM SCT050 BKN100
     FM282100 22012KT P6SM VCTS BKN050CB
     FM290200 24005KT P6SM BKN100
     FM290500 17004KT P6SM VCSH BKN070
     FM290800 19004KT P6SM VCTS BKN050CB=

USA.gov is the U.S. government's official web portal to all federal, state and local government web resources and services.